createdAt,value
2023-02-11T00:02:11.176Z,53.31
2023-02-11T00:04:23.903Z,53.10
2023-02-11T00:06:38.784Z,53.07
2023-02-11T00:08:51.634Z,52.75
2023-02-11T00:11:05.802Z,52.65
2023-02-11T00:13:18.225Z,52.68
2023-02-11T00:15:31.828Z,52.77
2023-02-11T00:17:45.579Z,53.00
2023-02-11T00:19:59.309Z,53.00
2023-02-11T00:22:12.980Z,53.11
2023-02-11T00:24:26.749Z,53.19
2023-02-11T00:26:41.006Z,53.27
2023-02-11T00:28:56.101Z,53.39
2023-02-11T00:31:09.605Z,53.39
2023-02-11T00:33:23.189Z,53.34
2023-02-11T00:35:36.344Z,53.43
2023-02-11T00:37:52.081Z,53.46
2023-02-11T00:40:06.812Z,53.41
2023-02-11T00:42:21.065Z,53.59
2023-02-11T00:44:35.178Z,53.76
2023-02-11T00:46:48.994Z,53.94
2023-02-11T00:49:03.693Z,54.06
2023-02-11T00:51:17.639Z,54.14
2023-02-11T00:53:31.265Z,54.13
2023-02-11T00:55:44.430Z,54.18
2023-02-11T00:57:58.005Z,54.15
2023-02-11T01:00:13.316Z,54.34
2023-02-11T01:02:27.344Z,54.26
2023-02-11T01:04:41.198Z,54.35
2023-02-11T01:06:54.500Z,54.27
2023-02-11T01:09:08.443Z,54.37
2023-02-11T01:11:24.183Z,54.47
2023-02-11T01:13:40.213Z,54.43
2023-02-11T01:15:57.467Z,54.58
2023-02-11T01:18:11.625Z,54.54
2023-02-11T01:20:26.833Z,54.64
2023-02-11T01:22:40.798Z,54.79
2023-02-11T01:24:54.207Z,54.75
2023-02-11T01:27:07.275Z,54.77
2023-02-11T01:29:21.793Z,55.03
2023-02-11T01:31:36.596Z,55.32
2023-02-11T01:33:50.306Z,55.18
2023-02-11T01:36:07.648Z,55.28
2023-02-11T01:38:24.859Z,55.54
2023-02-11T01:40:40.295Z,55.63
2023-02-11T01:42:53.551Z,55.90
2023-02-11T01:45:27.745Z,55.82
2023-02-11T01:47:40.968Z,56.30
2023-02-11T01:49:59.142Z,56.22
2023-02-11T01:52:18.711Z,56.32
2023-02-11T01:54:52.781Z,56.36
2023-02-11T01:57:26.100Z,56.65
2023-02-11T01:59:43.908Z,56.69
2023-02-11T02:02:00.478Z,56.86
2023-02-11T02:04:15.261Z,57.00
2023-02-11T02:06:33.337Z,57.04
2023-02-11T02:08:52.827Z,57.18
2023-02-11T02:11:06.211Z,57.39
2023-02-11T02:13:19.268Z,57.48
2023-02-11T02:15:36.286Z,57.44
2023-02-11T02:17:56.181Z,57.68
2023-02-11T02:20:45.883Z,57.74
2023-02-11T02:23:14.902Z,58.02
2023-02-11T02:25:47.007Z,57.98
2023-02-11T02:28:21.035Z,58.06
2023-02-11T02:30:59.434Z,58.29
2023-02-11T02:33:24.936Z,58.35
2023-02-11T02:35:44.491Z,58.40
2023-02-11T02:38:06.254Z,58.45
2023-02-11T02:40:25.446Z,58.48
2023-02-11T02:42:38.685Z,58.50
2023-02-11T02:44:56.436Z,58.84
2023-02-11T02:47:09.207Z,58.91
2023-02-11T02:49:22.406Z,58.93
2023-02-11T02:51:51.035Z,59.07
2023-02-11T02:54:24.161Z,59.12
2023-02-11T02:56:47.391Z,59.11
2023-02-11T02:59:23.611Z,59.26
2023-02-11T03:01:46.233Z,59.27
2023-02-11T03:04:09.416Z,59.41
2023-02-11T03:06:33.416Z,59.39
2023-02-11T03:08:52.144Z,59.41
2023-02-11T03:11:08.488Z,59.59
2023-02-11T03:13:25.021Z,59.66
2023-02-11T03:15:42.120Z,59.73
2023-02-11T03:17:59.948Z,59.77
2023-02-11T03:20:17.941Z,59.85
2023-02-11T03:22:36.659Z,59.96
2023-02-11T03:24:50.831Z,60.00
2023-02-11T03:27:10.288Z,60.14
2023-02-11T03:29:33.949Z,60.22
2023-02-11T03:31:57.952Z,60.29
2023-02-11T03:34:16.553Z,60.33
2023-02-11T03:36:35.923Z,60.27
2023-02-11T03:38:54.745Z,60.38
2023-02-11T03:41:09.349Z,60.29
2023-02-11T03:43:25.217Z,60.44
2023-02-11T03:45:39.925Z,60.48
2023-02-11T03:47:59.549Z,60.56
2023-02-11T03:50:15.836Z,60.55
2023-02-11T03:52:29.579Z,60.73
2023-02-11T03:54:45.179Z,60.75
2023-02-11T03:56:59.760Z,60.95
2023-02-11T03:59:13.687Z,61.02
2023-02-11T04:01:26.662Z,61.02
2023-02-11T04:03:39.584Z,60.76
2023-02-11T04:05:53.449Z,60.85
2023-02-11T04:08:08.964Z,60.89
2023-02-11T04:10:22.317Z,60.84
2023-02-11T04:12:35.969Z,60.92
2023-02-11T04:14:50.334Z,60.80
2023-02-11T04:17:04.014Z,61.06
2023-02-11T04:19:17.075Z,60.78
2023-02-11T04:21:30.964Z,60.76
2023-02-11T04:23:44.014Z,61.13
2023-02-11T04:25:57.651Z,61.34
2023-02-11T04:28:10.643Z,60.91
2023-02-11T04:30:24.582Z,61.38
2023-02-11T04:32:37.924Z,61.45
2023-02-11T04:34:51.662Z,61.56
2023-02-11T04:37:05.297Z,61.54
2023-02-11T04:39:19.129Z,61.60
2023-02-11T04:41:33.327Z,61.42
2023-02-11T04:43:46.501Z,61.86
2023-02-11T04:46:02.532Z,62.03
2023-02-11T04:48:15.128Z,61.96
2023-02-11T04:50:27.815Z,61.78
2023-02-11T04:52:40.354Z,62.20
2023-02-11T04:54:53.020Z,62.07
2023-02-11T04:57:05.527Z,61.96
2023-02-11T04:59:18.195Z,61.97
2023-02-11T05:01:31.150Z,62.05
2023-02-11T05:03:44.124Z,62.41
2023-02-11T05:05:58.611Z,62.10
2023-02-11T05:08:14.055Z,62.23
2023-02-11T05:10:27.425Z,62.59
2023-02-11T05:12:40.615Z,62.51
2023-02-11T05:14:53.850Z,62.56
2023-02-11T05:17:06.698Z,62.47
2023-02-11T05:19:19.790Z,62.72
2023-02-11T05:21:33.905Z,62.78
2023-02-11T05:23:48.326Z,62.64
2023-02-11T05:26:01.332Z,62.62
2023-02-11T05:28:14.051Z,62.82
2023-02-11T05:30:28.546Z,62.71
2023-02-11T05:32:41.317Z,62.96
2023-02-11T05:34:55.008Z,62.89
2023-02-11T05:37:09.925Z,62.89
2023-02-11T05:39:23.496Z,62.90
2023-02-11T05:41:37.268Z,63.07
2023-02-11T05:43:50.994Z,63.19
2023-02-11T05:46:04.520Z,63.27
2023-02-11T05:48:17.345Z,63.22
2023-02-11T05:50:30.812Z,63.15
2023-02-11T05:52:43.695Z,63.23
2023-02-11T05:54:57.733Z,63.43
2023-02-11T05:57:11.996Z,63.47
2023-02-11T05:59:24.553Z,63.32
2023-02-11T06:01:37.434Z,63.54
2023-02-11T06:03:51.130Z,63.42
2023-02-11T06:06:04.245Z,63.59
2023-02-11T06:08:18.302Z,63.68
2023-02-11T06:10:32.136Z,63.75
2023-02-11T06:12:45.959Z,63.58
2023-02-11T06:15:00.025Z,63.44
2023-02-11T06:17:15.525Z,63.74
2023-02-11T06:19:29.885Z,63.70
2023-02-11T06:21:44.524Z,63.92
2023-02-11T06:23:57.765Z,63.83
2023-02-11T06:26:12.574Z,63.88
2023-02-11T06:28:25.234Z,63.89
2023-02-11T06:30:39.397Z,64.17
2023-02-11T06:32:52.517Z,64.17
2023-02-11T06:35:06.386Z,63.95
2023-02-11T06:37:19.009Z,64.38
2023-02-11T06:39:35.134Z,64.20
2023-02-11T06:41:47.644Z,64.14
2023-02-11T06:44:00.839Z,64.08
2023-02-11T06:46:14.280Z,64.40
2023-02-11T06:48:27.749Z,64.30
2023-02-11T06:50:41.414Z,64.32
2023-02-11T06:52:54.007Z,64.35
2023-02-11T06:55:08.492Z,64.35
2023-02-11T06:57:21.100Z,64.49
2023-02-11T06:59:33.619Z,64.58
2023-02-11T07:01:47.360Z,64.56
2023-02-11T07:04:00.770Z,64.63
2023-02-11T07:06:15.250Z,64.76
2023-02-11T07:08:28.006Z,64.85
2023-02-11T07:10:42.027Z,64.93
2023-02-11T07:12:56.002Z,64.88
2023-02-11T07:15:11.152Z,65.08
2023-02-11T07:17:25.555Z,65.02
2023-02-11T07:19:39.904Z,65.13
2023-02-11T07:21:52.453Z,65.06
2023-02-11T07:24:05.109Z,65.28
2023-02-11T07:26:21.738Z,65.28
2023-02-11T07:28:35.660Z,65.24
2023-02-11T07:30:48.486Z,65.29
2023-02-11T07:33:03.011Z,65.36
2023-02-11T07:35:16.748Z,65.33
2023-02-11T07:37:30.317Z,65.42
2023-02-11T07:39:43.551Z,65.52
2023-02-11T07:41:56.198Z,65.63
2023-02-11T07:44:10.983Z,65.54
2023-02-11T07:46:26.429Z,65.63
2023-02-11T07:48:40.116Z,65.50
2023-02-11T07:50:53.915Z,65.52
2023-02-11T07:53:07.458Z,65.50
2023-02-11T07:55:20.523Z,65.52
2023-02-11T07:57:33.912Z,65.40
2023-02-11T07:59:47.247Z,65.49
2023-02-11T08:02:01.257Z,65.54
2023-02-11T08:04:15.109Z,65.70
2023-02-11T08:06:31.551Z,65.93
2023-02-11T08:08:45.469Z,65.95
2023-02-11T08:10:59.326Z,65.95
2023-02-11T08:13:12.265Z,66.19
2023-02-11T08:15:25.253Z,66.34
2023-02-11T08:17:38.760Z,66.45
2023-02-11T08:19:52.810Z,66.53
2023-02-11T08:22:07.403Z,66.58
2023-02-11T08:24:21.760Z,66.61
2023-02-11T08:26:37.810Z,66.78
2023-02-11T08:28:54.919Z,66.78
2023-02-11T08:31:15.649Z,66.86
2023-02-11T08:33:28.256Z,66.88
2023-02-11T08:35:43.669Z,66.80
2023-02-11T08:37:57.144Z,67.02
2023-02-11T08:40:12.249Z,66.97
2023-02-11T08:42:24.967Z,66.95
2023-02-11T08:44:38.954Z,66.87
2023-02-11T08:46:51.978Z,67.02
2023-02-11T08:49:04.621Z,67.07
2023-02-11T08:51:20.409Z,67.05
2023-02-11T08:53:33.189Z,66.98
2023-02-11T08:55:51.422Z,67.04
2023-02-11T08:58:04.142Z,67.17
2023-02-11T09:00:19.788Z,67.23
2023-02-11T09:02:32.985Z,67.38
2023-02-11T09:04:46.787Z,67.61
2023-02-11T09:07:00.148Z,67.61
2023-02-11T09:09:16.967Z,67.70
2023-02-11T09:11:33.300Z,67.84
2023-02-11T09:13:47.470Z,67.59
2023-02-11T09:16:00.407Z,67.65
2023-02-11T09:18:13.177Z,67.87
2023-02-11T09:20:27.645Z,67.88
2023-02-11T09:22:40.387Z,68.11
2023-02-11T09:24:52.895Z,67.91
2023-02-11T09:27:06.056Z,67.94
2023-02-11T09:29:19.335Z,68.08
2023-02-11T09:31:35.175Z,68.15
2023-02-11T09:33:50.683Z,68.18
2023-02-11T09:36:06.954Z,68.30
2023-02-11T09:38:19.460Z,68.43
2023-02-11T09:40:32.300Z,68.46
2023-02-11T09:43:04.259Z,68.53
2023-02-11T09:45:21.655Z,68.31
2023-02-11T09:47:37.484Z,68.42
2023-02-11T09:49:53.231Z,68.40
2023-02-11T09:52:11.553Z,68.46
2023-02-11T09:54:30.056Z,68.51
2023-02-11T09:56:43.098Z,68.59
2023-02-11T09:58:55.687Z,68.68
2023-02-11T10:01:14.670Z,68.71
2023-02-11T10:03:49.248Z,69.10
2023-02-11T10:06:15.686Z,68.96
2023-02-11T10:08:39.615Z,69.33
2023-02-11T10:10:57.454Z,69.20
2023-02-11T10:13:34.742Z,69.12
2023-02-11T10:15:55.523Z,69.13
2023-02-11T10:18:30.615Z,69.14
2023-02-11T10:20:52.102Z,69.12
2023-02-11T10:23:12.897Z,69.38
2023-02-11T10:25:37.061Z,69.30
2023-02-11T10:27:49.622Z,69.46
2023-02-11T10:30:10.046Z,69.24
2023-02-11T10:32:35.115Z,69.28
2023-02-11T10:34:48.017Z,69.38
2023-02-11T10:37:01.454Z,69.43
2023-02-11T10:39:19.977Z,69.48
2023-02-11T10:41:36.026Z,69.42
2023-02-11T10:43:48.716Z,69.57
2023-02-11T10:46:03.026Z,69.55
2023-02-11T10:48:43.337Z,69.29
2023-02-11T10:51:09.885Z,69.35
2023-02-11T10:53:25.540Z,69.51
2023-02-11T10:55:38.925Z,69.74
2023-02-11T10:57:59.553Z,69.63
2023-02-11T11:00:32.276Z,69.37
2023-02-11T11:02:47.789Z,69.43
2023-02-11T11:05:07.011Z,69.33
2023-02-11T11:07:26.310Z,69.36
2023-02-11T11:09:50.431Z,69.45
2023-02-11T11:12:02.993Z,69.52
2023-02-11T11:14:27.147Z,69.82
2023-02-11T11:16:40.332Z,69.62
2023-02-11T11:18:56.331Z,69.68
2023-02-11T11:21:16.560Z,69.40
2023-02-11T11:23:30.878Z,69.58
2023-02-11T11:25:47.074Z,69.65
2023-02-11T11:28:04.004Z,69.68
2023-02-11T11:30:23.219Z,69.83
2023-02-11T11:32:38.170Z,69.78
2023-02-11T11:34:56.840Z,69.86
2023-02-11T11:37:18.052Z,69.72
2023-02-11T11:39:34.172Z,69.76
2023-02-11T11:41:56.470Z,70.04
2023-02-11T11:44:26.934Z,69.96
2023-02-11T11:46:45.562Z,69.92
2023-02-11T11:49:06.508Z,70.03
2023-02-11T11:51:21.008Z,70.29
2023-02-11T11:53:41.033Z,70.13
2023-02-11T11:56:00.310Z,69.93
2023-02-11T11:58:19.682Z,70.49
2023-02-11T12:00:35.506Z,70.56
2023-02-11T12:03:14.097Z,71.17
2023-02-11T12:05:35.516Z,71.38
2023-02-11T12:08:06.992Z,71.40
2023-02-11T12:10:47.115Z,71.39
2023-02-11T12:13:07.756Z,71.39
2023-02-11T12:15:34.523Z,71.48
2023-02-11T12:18:02.524Z,71.62
2023-02-11T12:20:27.254Z,71.43
2023-02-11T12:22:54.053Z,71.77
2023-02-11T12:25:28.399Z,71.62
2023-02-11T12:27:51.334Z,72.05
2023-02-11T12:30:16.579Z,71.96
2023-02-11T12:32:37.543Z,71.84
2023-02-11T12:35:09.937Z,72.18
2023-02-11T12:37:36.054Z,71.99
2023-02-11T12:39:54.675Z,72.12
2023-02-11T12:42:49.273Z,72.27
2023-02-11T12:45:22.012Z,72.32
2023-02-11T12:47:44.585Z,72.56
2023-02-11T12:50:17.099Z,72.50
2023-02-11T12:52:35.916Z,72.49
2023-02-11T12:54:57.018Z,72.34
2023-02-11T12:57:18.429Z,72.71
2023-02-11T12:59:43.837Z,72.67
2023-02-11T13:01:59.109Z,72.71
2023-02-11T13:04:17.039Z,72.62
2023-02-11T13:06:37.796Z,72.58
2023-02-11T13:08:54.549Z,72.91
2023-02-11T13:11:14.494Z,72.73
2023-02-11T13:13:29.887Z,72.62
2023-02-11T13:15:43.465Z,72.69
2023-02-11T13:18:03.975Z,72.60
2023-02-11T13:20:31.812Z,72.86
2023-02-11T13:22:53.909Z,72.73
2023-02-11T13:25:19.215Z,72.71
2023-02-11T13:27:41.445Z,72.62
2023-02-11T13:30:29.050Z,72.62
2023-02-11T13:33:21.087Z,72.80
2023-02-11T13:35:39.257Z,72.72
2023-02-11T13:37:53.840Z,73.01
2023-02-11T13:40:10.770Z,72.93
2023-02-11T13:42:23.569Z,72.83
2023-02-11T13:44:39.543Z,72.85
2023-02-11T13:47:02.407Z,73.16
2023-02-11T13:49:26.476Z,72.89
2023-02-11T13:51:45.504Z,73.26
2023-02-11T13:54:00.885Z,73.00
2023-02-11T13:56:25.503Z,73.04
2023-02-11T13:58:53.216Z,72.95
2023-02-11T14:01:06.730Z,73.29
2023-02-11T14:03:54.152Z,72.86
2023-02-11T14:06:41.906Z,73.17
2023-02-11T14:09:24.332Z,73.30
2023-02-11T14:12:34.184Z,73.03
2023-02-11T14:15:17.026Z,73.16
2023-02-11T14:17:38.325Z,73.12
2023-02-11T14:19:53.020Z,72.99
2023-02-11T14:22:17.628Z,73.29
2023-02-11T14:24:56.293Z,73.17
2023-02-11T14:27:13.316Z,73.27
2023-02-11T14:29:36.671Z,72.95
2023-02-11T14:31:55.989Z,73.01
2023-02-11T14:34:33.752Z,72.86
2023-02-11T14:37:06.823Z,73.19
2023-02-11T14:39:26.043Z,72.90
2023-02-11T14:41:45.017Z,72.69
2023-02-11T14:44:01.483Z,72.93
2023-02-11T14:46:15.283Z,72.75
2023-02-11T14:48:31.593Z,72.73
2023-02-11T14:50:49.800Z,72.84
2023-02-11T14:53:07.315Z,72.82
2023-02-11T14:55:32.122Z,72.84
2023-02-11T14:57:46.884Z,72.99
2023-02-11T15:00:06.430Z,72.61
2023-02-11T15:02:35.761Z,72.70
2023-02-11T15:04:48.613Z,72.83
2023-02-11T15:07:02.507Z,72.78
2023-02-11T15:09:25.171Z,72.71
2023-02-11T15:11:42.767Z,72.70
2023-02-11T15:13:57.855Z,72.54
2023-02-11T15:16:16.570Z,72.67
2023-02-11T15:18:35.091Z,72.83
2023-02-11T15:20:47.753Z,72.88
2023-02-11T15:23:03.055Z,72.77
2023-02-11T15:25:21.102Z,72.59
2023-02-11T15:27:40.956Z,72.73
2023-02-11T15:29:55.166Z,72.90
2023-02-11T15:32:16.627Z,72.82
2023-02-11T15:34:29.545Z,72.69
2023-02-11T15:36:51.908Z,72.58
2023-02-11T15:39:31.790Z,72.78
2023-02-11T15:41:45.467Z,72.37
2023-02-11T15:43:58.271Z,72.72
2023-02-11T15:46:12.850Z,72.81
2023-02-11T15:48:31.719Z,72.73
2023-02-11T15:50:47.934Z,73.01
2023-02-11T15:53:05.714Z,73.05
2023-02-11T15:55:22.812Z,73.03
2023-02-11T15:57:37.886Z,73.15
2023-02-11T15:59:55.252Z,73.40
2023-02-11T16:02:18.622Z,73.32
2023-02-11T16:04:32.431Z,73.28
2023-02-11T16:06:48.993Z,73.18
2023-02-11T16:09:07.320Z,73.19
2023-02-11T16:11:33.576Z,73.29
2023-02-11T16:13:52.815Z,73.54
2023-02-11T16:16:09.033Z,73.18
2023-02-11T16:18:38.340Z,73.45
2023-02-11T16:20:55.586Z,73.52
2023-02-11T16:23:10.508Z,73.54
2023-02-11T16:25:26.017Z,73.58
2023-02-11T16:27:44.286Z,73.61
2023-02-11T16:29:58.734Z,73.56
2023-02-11T16:32:19.568Z,73.73
2023-02-11T16:34:34.407Z,73.47
2023-02-11T16:36:47.893Z,73.65
2023-02-11T16:39:01.482Z,73.98
2023-02-11T16:41:15.757Z,73.66
2023-02-11T16:43:29.633Z,73.59
2023-02-11T16:45:43.756Z,73.73
2023-02-11T16:47:56.960Z,73.73
2023-02-11T16:50:22.305Z,73.74
2023-02-11T16:52:38.276Z,73.75
2023-02-11T16:54:52.243Z,73.45
2023-02-11T16:57:12.794Z,73.30
2023-02-11T16:59:25.905Z,73.45
2023-02-11T17:01:41.458Z,73.64
2023-02-11T17:03:55.763Z,73.43
2023-02-11T17:06:10.122Z,73.67
2023-02-11T17:08:23.228Z,73.49
2023-02-11T17:10:38.733Z,73.61
2023-02-11T17:12:53.630Z,73.76
2023-02-11T17:15:07.706Z,73.63
2023-02-11T17:17:23.074Z,73.39
2023-02-11T17:19:36.383Z,73.64
2023-02-11T17:21:51.563Z,73.38
2023-02-11T17:24:05.234Z,73.53
2023-02-11T17:26:20.795Z,73.76
2023-02-11T17:28:33.877Z,73.42
2023-02-11T17:30:48.793Z,73.49
2023-02-11T17:33:02.404Z,73.20
2023-02-11T17:35:17.450Z,73.40
2023-02-11T17:37:31.387Z,73.46
2023-02-11T17:39:46.439Z,73.33
2023-02-11T17:42:01.120Z,73.20
2023-02-11T17:44:16.642Z,73.18
2023-02-11T17:46:32.019Z,73.17
2023-02-11T17:48:45.178Z,72.93
2023-02-11T17:50:58.402Z,73.07
2023-02-11T17:53:13.150Z,72.85
2023-02-11T17:55:26.498Z,72.96
2023-02-11T17:57:39.201Z,72.87
2023-02-11T17:59:52.782Z,72.80
2023-02-11T18:02:07.499Z,72.82
2023-02-11T18:04:22.753Z,72.81
2023-02-11T18:06:36.675Z,72.58
2023-02-11T18:08:49.617Z,72.42
2023-02-11T18:11:02.553Z,72.60
2023-02-11T18:13:15.136Z,72.40
2023-02-11T18:15:29.792Z,72.42
2023-02-11T18:17:42.610Z,72.37
2023-02-11T18:19:58.140Z,72.21
2023-02-11T18:22:13.614Z,72.24
2023-02-11T18:24:27.309Z,72.08
2023-02-11T18:26:41.349Z,71.92
2023-02-11T18:28:54.304Z,72.06
2023-02-11T18:31:07.661Z,71.94
2023-02-11T18:33:20.543Z,71.85
2023-02-11T18:35:34.362Z,71.70
2023-02-11T18:37:47.482Z,71.55
2023-02-11T18:40:01.163Z,71.78
2023-02-11T18:42:14.336Z,71.81
2023-02-11T18:44:28.205Z,71.97
2023-02-11T18:46:42.259Z,71.82
2023-02-11T18:48:56.465Z,71.75
2023-02-11T18:51:14.597Z,71.67
2023-02-11T18:53:28.510Z,71.60
2023-02-11T18:55:43.543Z,71.60
2023-02-11T18:57:56.685Z,71.52
2023-02-11T19:00:11.328Z,71.57
2023-02-11T19:02:25.956Z,71.46
2023-02-11T19:04:41.155Z,71.22
2023-02-11T19:06:55.191Z,71.23
2023-02-11T19:09:10.951Z,71.22
2023-02-11T19:11:44.477Z,71.30
2023-02-11T19:13:58.407Z,71.16
2023-02-11T19:16:15.904Z,71.00
2023-02-11T19:18:28.691Z,70.97
2023-02-11T19:20:44.731Z,70.90
2023-02-11T19:22:57.582Z,70.76
2023-02-11T19:25:10.758Z,70.50
2023-02-11T19:27:23.706Z,70.31
2023-02-11T19:29:37.761Z,70.22
2023-02-11T19:31:51.793Z,70.15
2023-02-11T19:34:06.260Z,70.01
2023-02-11T19:36:21.756Z,69.90
2023-02-11T19:38:35.383Z,70.04
2023-02-11T19:40:48.183Z,69.74
2023-02-11T19:43:01.221Z,69.37
2023-02-11T19:45:14.632Z,69.37
2023-02-11T19:47:28.765Z,69.30
2023-02-11T19:49:41.940Z,68.98
2023-02-11T19:51:54.841Z,68.30
2023-02-11T19:54:10.104Z,67.80
2023-02-11T19:56:24.176Z,68.10
2023-02-11T19:58:37.030Z,67.77
2023-02-11T20:00:51.240Z,67.35
2023-02-11T20:03:06.827Z,67.47
2023-02-11T20:05:20.643Z,66.92
2023-02-11T20:07:34.275Z,66.82
2023-02-11T20:09:48.144Z,66.99
2023-02-11T20:12:01.758Z,67.12
2023-02-11T20:14:18.603Z,67.21
2023-02-11T20:16:47.701Z,67.21
2023-02-11T20:19:03.342Z,66.86
2023-02-11T20:21:17.806Z,66.39
2023-02-11T20:23:30.516Z,66.22
2023-02-11T20:25:46.681Z,66.26
2023-02-11T20:28:00.499Z,66.42
2023-02-11T20:30:14.766Z,66.35
2023-02-11T20:32:27.950Z,66.02
2023-02-11T20:34:41.365Z,65.29
2023-02-11T20:36:56.018Z,64.71
2023-02-11T20:39:10.532Z,64.63
2023-02-11T20:41:26.248Z,64.28
2023-02-11T20:43:40.055Z,63.86
2023-02-11T20:45:53.225Z,63.58
2023-02-11T20:48:09.472Z,63.57
2023-02-11T20:50:23.968Z,63.42
2023-02-11T20:52:38.015Z,62.79
2023-02-11T20:54:50.661Z,62.21
2023-02-11T20:57:03.921Z,62.20
2023-02-11T20:59:19.624Z,61.74
2023-02-11T21:01:36.314Z,61.45
2023-02-11T21:03:53.499Z,61.37
2023-02-11T21:06:07.762Z,61.16
2023-02-11T21:08:21.383Z,60.17
2023-02-11T21:10:34.786Z,59.37
2023-02-11T21:12:49.923Z,59.10
2023-02-11T21:15:05.931Z,59.04
2023-02-11T21:17:19.151Z,58.20
2023-02-11T21:19:31.891Z,57.74
2023-02-11T21:21:45.934Z,57.92
2023-02-11T21:23:59.513Z,57.36
2023-02-11T21:26:12.807Z,57.57
2023-02-11T21:28:28.946Z,57.80
2023-02-11T21:30:44.138Z,57.92
2023-02-11T21:32:57.981Z,57.79
2023-02-11T21:35:12.829Z,57.83
2023-02-11T21:37:27.462Z,57.30
2023-02-11T21:39:40.634Z,56.28
2023-02-11T21:41:56.819Z,55.83
2023-02-11T21:44:10.932Z,55.85
2023-02-11T21:46:25.452Z,55.72
2023-02-11T21:48:38.676Z,55.64
2023-02-11T21:50:54.180Z,55.38
2023-02-11T21:53:07.372Z,55.19
2023-02-11T21:55:21.671Z,54.86
2023-02-11T21:57:35.241Z,54.43
2023-02-11T21:59:49.251Z,54.62
2023-02-11T22:02:02.941Z,54.93
2023-02-11T22:04:18.125Z,54.57
2023-02-11T22:06:33.242Z,54.43
2023-02-11T22:08:46.783Z,54.18
2023-02-11T22:11:04.407Z,54.19
2023-02-11T22:13:17.855Z,53.85
2023-02-11T22:15:31.350Z,53.56
2023-02-11T22:17:44.490Z,53.54
2023-02-11T22:19:57.630Z,53.45
2023-02-11T22:22:10.556Z,53.23
2023-02-11T22:24:23.601Z,53.32
2023-02-11T22:26:36.529Z,53.23
2023-02-11T22:28:49.817Z,53.15
2023-02-11T22:31:03.103Z,52.87
2023-02-11T22:33:15.643Z,52.87
2023-02-11T22:35:28.198Z,52.29
2023-02-11T22:37:40.985Z,52.05
2023-02-11T22:39:54.283Z,52.06
2023-02-11T22:42:08.074Z,52.24
2023-02-11T22:44:22.664Z,52.25
2023-02-11T22:46:35.398Z,52.26
2023-02-11T22:48:48.430Z,51.99
2023-02-11T22:51:06.884Z,52.15
2023-02-11T22:53:19.681Z,52.07
2023-02-11T22:55:32.597Z,51.90
2023-02-11T22:57:45.230Z,51.76
2023-02-11T22:59:57.997Z,51.67
2023-02-11T23:02:10.908Z,51.32
2023-02-11T23:04:24.357Z,51.44
2023-02-11T23:06:38.588Z,51.26
2023-02-11T23:08:52.381Z,51.12
2023-02-11T23:11:09.711Z,50.85
2023-02-11T23:13:23.306Z,50.60
2023-02-11T23:15:37.327Z,50.57
2023-02-11T23:17:53.227Z,50.85
2023-02-11T23:20:06.731Z,50.94
2023-02-11T23:22:20.329Z,50.87
2023-02-11T23:24:33.011Z,50.76
2023-02-11T23:26:46.748Z,50.37
2023-02-11T23:29:00.995Z,50.29
2023-02-11T23:31:22.161Z,50.16
2023-02-11T23:33:36.150Z,49.99
2023-02-11T23:35:50.141Z,49.96
2023-02-11T23:38:03.397Z,50.08
2023-02-11T23:40:18.666Z,50.26
2023-02-11T23:42:32.795Z,50.04
2023-02-11T23:44:47.187Z,49.93
2023-02-11T23:47:01.116Z,49.65
2023-02-11T23:49:16.585Z,49.67
2023-02-11T23:51:30.892Z,49.71
2023-02-11T23:53:46.748Z,49.49
2023-02-11T23:56:02.205Z,49.27
2023-02-11T23:58:15.200Z,49.16
